Time;durP1;ratioP1;P1;durP2;ratioP2;P2;SDS_P1;SDS_P2;PMS_P1;PMS_P2;Temp;Humidity;BMP_temperature;BMP_pressure;BME280_temperature;BME280_humidity;BME280_pressure;Samples;Min_cycle;Max_cycle;Signal;HPM_P1;HPM_P2
2021/08/27 00:00:25;;;;;;;3.20;2.90;;;;;;;;;;5099710;28;20573;-63
2021/08/27 00:02:53;;;;;;;6.13;3.10;;;;;;;;;;5099542;28;20205;-63
2021/08/27 00:05:22;;;;;;;3.83;3.47;;;;;;;;;;5099593;28;20229;-63
2021/08/27 00:07:50;;;;;;;4.57;2.90;;;;;;;;;;5099795;28;20216;-63
2021/08/27 00:10:18;;;;;;;3.30;2.30;;;;;;;;;;5099771;28;20288;-63
2021/08/27 00:12:46;;;;;;;3.07;2.40;;;;;;;;;;5099581;28;20208;-63
2021/08/27 00:15:14;;;;;;;3.07;2.30;;;;;;;;;;5099390;28;20254;-63
2021/08/27 00:17:44;;;;;;;6.00;2.67;;;;;;;;;;5099215;28;20209;-63
2021/08/27 00:20:13;;;;;;;2.97;2.00;;;;;;;;;;5099141;28;20660;-63
2021/08/27 00:22:41;;;;;;;3.40;1.87;;;;;;;;;;5099174;28;20244;-63
2021/08/27 00:25:09;;;;;;;2.20;1.83;;;;;;;;;;5099854;28;20837;-63
2021/08/27 00:27:37;;;;;;;3.53;1.83;;;;;;;;;;5099394;28;20254;-63
2021/08/27 00:30:05;;;;;;;2.67;2.20;;;;;;;;;;5109364;28;20664;-63
2021/08/27 00:32:33;;;;;;;4.47;2.40;;;;;;;;;;5119046;28;20208;-63
2021/08/27 00:35:05;;;;;;;3.97;2.30;;;;;;;;;;5119345;28;20617;-63
2021/08/27 00:37:33;;;;;;;3.50;2.03;;;;;;;;;;5119552;27;20294;-61
2021/08/27 00:40:01;;;;;;;3.27;2.13;;;;;;;;;;5119577;28;20214;-63
2021/08/27 00:42:29;;;;;;;5.87;2.63;;;;;;;;;;5119246;28;20207;-63
2021/08/27 00:44:57;;;;;;;3.30;2.10;;;;;;;;;;5119352;28;20225;-60
2021/08/27 00:47:25;;;;;;;3.57;2.03;;;;;;;;;;5119132;28;20211;-63
2021/08/27 00:49:53;;;;;;;4.97;2.63;;;;;;;;;;5119063;28;20212;-62
2021/08/27 00:52:23;;;;;;;4.90;2.40;;;;;;;;;;5099607;28;20212;-63
2021/08/27 00:54:53;;;;;;;2.33;2.10;;;;;;;;;;5098621;28;20232;-62
2021/08/27 00:57:21;;;;;;;5.63;2.30;;;;;;;;;;5098886;28;20667;-62
2021/08/27 00:59:49;;;;;;;5.37;2.07;;;;;;;;;;5098416;28;20212;-63
2021/08/27 01:02:17;;;;;;;4.13;2.50;;;;;;;;;;5098360;28;20215;-63
2021/08/27 01:04:46;;;;;;;2.63;1.97;;;;;;;;;;5098165;28;20283;-63
2021/08/27 01:07:16;;;;;;;4.00;2.40;;;;;;;;;;5098453;28;20210;-63
2021/08/27 01:09:49;;;;;;;2.50;2.30;;;;;;;;;;5098535;28;20210;-62
2021/08/27 01:12:20;;;;;;;3.47;2.50;;;;;;;;;;5098331;28;20288;-62
2021/08/27 01:14:50;;;;;;;5.90;2.40;;;;;;;;;;5098426;28;20222;-62
2021/08/27 01:17:21;;;;;;;4.77;2.63;;;;;;;;;;5097878;28;20216;-62
2021/08/27 01:20:07;;;;;;;3.30;2.03;;;;;;;;;;5098380;28;20209;-62
2021/08/27 01:22:59;;;;;;;9.97;2.67;;;;;;;;;;5098136;28;20275;-63
2021/08/27 01:25:29;;;;;;;3.90;2.37;;;;;;;;;;5089920;28;20312;-62
2021/08/27 01:27:58;;;;;;;3.60;2.43;;;;;;;;;;5097996;28;20215;-63
2021/08/27 01:30:35;;;;;;;3.77;2.30;;;;;;;;;;5111082;28;20236;-62
2021/08/27 01:33:07;;;;;;;3.73;2.70;;;;;;;;;;5118418;28;20211;-62
2021/08/27 01:35:37;;;;;;;3.53;2.30;;;;;;;;;;5118228;28;20223;-63
2021/08/27 01:38:07;;;;;;;4.93;2.50;;;;;;;;;;5118091;28;20200;-62
2021/08/27 01:40:36;;;;;;;7.37;2.37;;;;;;;;;;5118113;28;20209;-62
2021/08/27 01:43:06;;;;;;;5.30;1.90;;;;;;;;;;5118534;28;20287;-62
2021/08/27 01:45:35;;;;;;;3.20;2.10;;;;;;;;;;5118199;28;20224;-62
2021/08/27 01:48:05;;;;;;;8.23;2.60;;;;;;;;;;5118024;28;20224;-62
2021/08/27 01:50:33;;;;;;;4.07;2.37;;;;;;;;;;5113604;28;20213;-62
2021/08/27 01:53:04;;;;;;;5.57;2.30;;;;;;;;;;5097789;28;20293;-62
2021/08/27 01:55:32;;;;;;;6.03;2.10;;;;;;;;;;5097607;28;20696;-62
2021/08/27 01:58:01;;;;;;;6.97;2.20;;;;;;;;;;5097913;28;20292;-62
2021/08/27 02:00:30;;;;;;;5.07;2.27;;;;;;;;;;5097595;28;20653;-62
2021/08/27 02:02:59;;;;;;;5.37;2.43;;;;;;;;;;5097490;28;20208;-62
2021/08/27 02:05:28;;;;;;;5.17;2.37;;;;;;;;;;5097694;28;20684;-63
2021/08/27 02:07:57;;;;;;;5.27;2.33;;;;;;;;;;5097835;28;20215;-63
2021/08/27 02:10:28;;;;;;;2.90;2.33;;;;;;;;;;5097776;28;20209;-62
2021/08/27 02:12:57;;;;;;;5.33;2.43;;;;;;;;;;5097692;28;20216;-62
2021/08/27 02:15:25;;;;;;;3.13;2.20;;;;;;;;;;5097644;28;20237;-63
2021/08/27 02:17:53;;;;;;;6.03;2.73;;;;;;;;;;5100694;28;20205;-63
2021/08/27 02:20:21;;;;;;;3.07;2.43;;;;;;;;;;5101881;28;20211;-63
2021/08/27 02:22:52;;;;;;;5.20;2.40;;;;;;;;;;5101450;28;20791;-63
2021/08/27 02:25:21;;;;;;;4.90;2.23;;;;;;;;;;5102483;28;20236;-63
2021/08/27 02:27:50;;;;;;;5.70;2.33;;;;;;;;;;5101669;28;20293;-63
2021/08/27 02:30:18;;;;;;;7.80;2.40;;;;;;;;;;5113232;28;20197;-62
2021/08/27 02:32:47;;;;;;;5.93;2.70;;;;;;;;;;5121454;28;20291;-63
2021/08/27 02:35:16;;;;;;;4.90;2.20;;;;;;;;;;5122028;28;20676;-63
2021/08/27 02:37:46;;;;;;;6.27;2.50;;;;;;;;;;5122047;28;20208;-63
2021/08/27 02:40:14;;;;;;;8.87;2.70;;;;;;;;;;5109892;28;20288;-62
2021/08/27 02:42:42;;;;;;;5.17;2.33;;;;;;;;;;5106765;28;20204;-62
2021/08/27 02:45:12;;;;;;;5.33;2.20;;;;;;;;;;5110022;28;20285;-62
2021/08/27 02:47:40;;;;;;;3.43;2.33;;;;;;;;;;5100757;28;20200;-63
2021/08/27 02:50:08;;;;;;;6.53;2.37;;;;;;;;;;5108209;28;20740;-63
2021/08/27 02:52:39;;;;;;;4.60;2.50;;;;;;;;;;5107159;28;20291;-62
2021/08/27 02:55:09;;;;;;;6.80;3.00;;;;;;;;;;5107776;28;20213;-63
2021/08/27 02:57:40;;;;;;;7.20;2.60;;;;;;;;;;5108684;28;20200;-63
2021/08/27 03:00:08;;;;;;;6.33;2.60;;;;;;;;;;5109160;28;20204;-63
2021/08/27 03:02:39;;;;;;;6.70;2.50;;;;;;;;;;5108562;28;20201;-63
2021/08/27 03:05:09;;;;;;;6.27;2.27;;;;;;;;;;5107898;28;20584;-62
2021/08/27 03:07:39;;;;;;;4.23;2.40;;;;;;;;;;5100565;28;20204;-62
2021/08/27 03:10:10;;;;;;;5.07;2.60;;;;;;;;;;5100181;28;20606;-63
2021/08/27 03:12:43;;;;;;;4.97;2.57;;;;;;;;;;5100135;28;20545;-62
2021/08/27 03:15:15;;;;;;;6.90;2.40;;;;;;;;;;5099969;28;20224;-62
2021/08/27 03:17:44;;;;;;;5.80;2.50;;;;;;;;;;5106556;28;20202;-62
2021/08/27 03:20:15;;;;;;;7.50;2.90;;;;;;;;;;5107014;28;20215;-62
2021/08/27 03:22:45;;;;;;;5.73;2.70;;;;;;;;;;5094418;28;20236;-63
2021/08/27 03:25:14;;;;;;;4.13;2.30;;;;;;;;;;5106346;28;20232;-62
2021/08/27 03:27:43;;;;;;;7.23;2.43;;;;;;;;;;5106011;28;20204;-62
2021/08/27 03:30:13;;;;;;;8.50;3.03;;;;;;;;;;5108370;28;20536;-63
2021/08/27 03:32:43;;;;;;;6.00;2.53;;;;;;;;;;5103987;28;20201;-62
2021/08/27 03:35:14;;;;;;;6.40;2.40;;;;;;;;;;5107224;28;20221;-63
2021/08/27 03:37:42;;;;;;;6.90;2.60;;;;;;;;;;5103908;28;20281;-63
2021/08/27 03:40:12;;;;;;;6.33;2.77;;;;;;;;;;5106792;28;20202;-63
2021/08/27 03:42:40;;;;;;;4.00;2.60;;;;;;;;;;5103812;28;20202;-63
2021/08/27 03:45:09;;;;;;;6.23;2.80;;;;;;;;;;5106343;28;20577;-63
2021/08/27 03:47:38;;;;;;;6.03;2.20;;;;;;;;;;5103673;28;20292;-63
2021/08/27 03:50:08;;;;;;;8.27;2.73;;;;;;;;;;5108479;28;20197;-63
2021/08/27 03:52:38;;;;;;;5.87;2.20;;;;;;;;;;5105703;28;20237;-62
2021/08/27 03:55:06;;;;;;;3.90;2.47;;;;;;;;;;5097303;28;20236;-62
2021/08/27 03:57:36;;;;;;;4.73;2.60;;;;;;;;;;5097433;28;20671;-63
2021/08/27 04:00:05;;;;;;;4.40;2.60;;;;;;;;;;5100769;28;20201;-63
2021/08/27 04:02:33;;;;;;;7.63;2.50;;;;;;;;;;5097862;28;20209;-62
2021/08/27 04:05:09;;;;;;;6.93;3.30;;;;;;;;;;5098381;28;20226;-63
2021/08/27 04:07:38;;;;;;;3.20;2.17;;;;;;;;;;5098009;28;20208;-62
2021/08/27 04:10:07;;;;;;;5.30;2.47;;;;;;;;;;5098316;28;20213;-62
2021/08/27 04:12:38;;;;;;;6.30;2.63;;;;;;;;;;5098576;28;20205;-62
2021/08/27 04:15:06;;;;;;;4.67;2.63;;;;;;;;;;5098375;28;20240;-62
2021/08/27 04:17:34;;;;;;;3.63;2.10;;;;;;;;;;5098289;28;20203;-62
2021/08/27 04:20:03;;;;;;;3.63;2.47;;;;;;;;;;5098516;28;20273;-62
2021/08/27 04:22:31;;;;;;;4.83;2.60;;;;;;;;;;5067259;28;1277546;-62
2021/08/27 04:25:00;;;;;;;7.20;2.47;;;;;;;;;;5112486;28;20237;-63
2021/08/27 04:27:28;;;;;;;3.97;2.40;;;;;;;;;;5099078;28;20228;-62
2021/08/27 04:29:56;;;;;;;3.50;1.90;;;;;;;;;;5108050;28;20205;-62
2021/08/27 04:32:24;;;;;;;3.63;2.50;;;;;;;;;;5119326;28;20215;-62
2021/08/27 04:34:52;;;;;;;5.77;2.53;;;;;;;;;;5119689;28;20225;-62
2021/08/27 04:37:20;;;;;;;7.37;2.77;;;;;;;;;;5119559;28;20204;-62
2021/08/27 04:39:48;;;;;;;5.53;2.53;;;;;;;;;;5118829;28;20292;-62
2021/08/27 04:42:18;;;;;;;8.07;2.30;;;;;;;;;;5119565;28;20209;-62
2021/08/27 04:44:46;;;;;;;5.17;2.17;;;;;;;;;;5119189;28;20225;-62
2021/08/27 04:47:14;;;;;;;8.07;2.97;;;;;;;;;;5118881;27;20227;-62
2021/08/27 04:49:42;;;;;;;8.60;2.53;;;;;;;;;;5119353;28;20205;-62
2021/08/27 04:52:10;;;;;;;8.23;2.60;;;;;;;;;;5100921;28;20210;-63
2021/08/27 04:54:38;;;;;;;8.03;2.30;;;;;;;;;;5098789;28;20221;-62
2021/08/27 04:57:06;;;;;;;5.03;2.50;;;;;;;;;;5098590;28;20202;-63
2021/08/27 04:59:35;;;;;;;4.70;2.10;;;;;;;;;;5098885;28;20205;-63
2021/08/27 05:02:04;;;;;;;5.97;2.90;;;;;;;;;;5097988;28;20620;-63
2021/08/27 05:04:32;;;;;;;4.33;2.20;;;;;;;;;;5098720;28;20225;-63
2021/08/27 05:07:00;;;;;;;4.00;2.23;;;;;;;;;;5098569;28;20230;-63
2021/08/27 05:09:28;;;;;;;3.47;2.07;;;;;;;;;;5098426;28;20210;-63
2021/08/27 05:11:56;;;;;;;7.47;2.17;;;;;;;;;;5098559;28;20237;-63
2021/08/27 05:14:24;;;;;;;4.30;2.63;;;;;;;;;;5098491;28;20233;-64
2021/08/27 05:16:53;;;;;;;2.80;2.30;;;;;;;;;;5098533;28;20206;-63
2021/08/27 05:19:21;;;;;;;8.73;2.40;;;;;;;;;;5098027;28;20656;-63
2021/08/27 05:21:49;;;;;;;6.80;2.57;;;;;;;;;;5098526;28;20202;-63
2021/08/27 05:24:17;;;;;;;6.37;2.23;;;;;;;;;;5099632;28;20236;-63
2021/08/27 05:26:45;;;;;;;6.90;2.30;;;;;;;;;;5098293;28;20222;-63
2021/08/27 05:29:13;;;;;;;5.27;2.53;;;;;;;;;;5100340;28;20206;-63
2021/08/27 05:31:41;;;;;;;7.20;1.90;;;;;;;;;;5107928;28;20196;-65
2021/08/27 05:34:10;;;;;;;6.70;3.07;;;;;;;;;;5108741;28;20227;-63
2021/08/27 05:36:38;;;;;;;3.93;2.43;;;;;;;;;;5108382;28;20277;-63
2021/08/27 05:39:06;;;;;;;3.90;2.33;;;;;;;;;;5108838;28;20700;-63
2021/08/27 05:41:34;;;;;;;7.93;2.90;;;;;;;;;;5107050;28;20651;-65
2021/08/27 05:44:03;;;;;;;4.47;2.40;;;;;;;;;;5105514;28;20217;-65
2021/08/27 05:46:30;;;;;;;11.03;2.70;;;;;;;;;;5106562;28;20218;-65
2021/08/27 05:48:58;;;;;;;4.77;2.57;;;;;;;;;;5105498;28;20208;-65
2021/08/27 05:51:28;;;;;;;6.97;2.33;;;;;;;;;;5108086;28;20223;-65
2021/08/27 05:53:56;;;;;;;7.30;2.67;;;;;;;;;;5106747;28;20220;-64
2021/08/27 05:56:24;;;;;;;5.27;2.30;;;;;;;;;;5106434;28;20233;-65
2021/08/27 05:58:52;;;;;;;5.77;2.23;;;;;;;;;;5106026;28;20201;-64
2021/08/27 06:01:20;;;;;;;3.93;2.23;;;;;;;;;;5106093;28;20204;-61
2021/08/27 06:03:48;;;;;;;4.20;2.27;;;;;;;;;;5106918;28;20285;-62
2021/08/27 06:06:16;;;;;;;5.93;2.40;;;;;;;;;;5106871;28;20287;-63
2021/08/27 06:08:45;;;;;;;4.70;2.30;;;;;;;;;;5106351;28;20197;-63
2021/08/27 06:11:13;;;;;;;4.90;2.77;;;;;;;;;;5108089;28;20205;-63
2021/08/27 06:13:41;;;;;;;8.67;3.00;;;;;;;;;;5103980;28;20561;-63
2021/08/27 06:16:09;;;;;;;5.43;2.67;;;;;;;;;;5105349;28;20208;-67
2021/08/27 06:18:37;;;;;;;10.40;2.57;;;;;;;;;;5105141;28;20203;-66
2021/08/27 06:21:05;;;;;;;5.63;2.23;;;;;;;;;;5097378;28;20209;-66
2021/08/27 06:23:33;;;;;;;7.20;2.57;;;;;;;;;;5097455;28;20241;-63
2021/08/27 06:26:03;;;;;;;5.87;2.23;;;;;;;;;;5099118;28;20205;-65
2021/08/27 06:28:30;;;;;;;5.30;2.10;;;;;;;;;;5097367;28;20234;-66
2021/08/27 06:30:58;;;;;;;4.03;2.60;;;;;;;;;;5114652;28;20563;-66
2021/08/27 06:33:29;;;;;;;9.87;3.10;;;;;;;;;;5117764;28;20254;-66
2021/08/27 06:35:57;;;;;;;5.87;2.60;;;;;;;;;;5117773;28;20287;-66
2021/08/27 06:38:25;;;;;;;5.13;1.97;;;;;;;;;;5117788;28;20211;-63
2021/08/27 06:40:59;;;;;;;5.17;2.60;;;;;;;;;;5105743;28;20212;-64
2021/08/27 06:43:30;;;;;;;12.23;2.70;;;;;;;;;;5096989;28;20205;-66
2021/08/27 06:46:01;;;;;;;6.93;3.10;;;;;;;;;;5097441;28;20205;-65
2021/08/27 06:48:29;;;;;;;8.03;3.30;;;;;;;;;;5096986;28;20236;-71
2021/08/27 06:50:57;;;;;;;10.43;2.50;;;;;;;;;;5107762;28;20207;-70
2021/08/27 06:53:25;;;;;;;8.87;2.43;;;;;;;;;;5104923;28;20202;-67
2021/08/27 06:55:53;;;;;;;6.73;2.93;;;;;;;;;;5105303;28;20197;-69
2021/08/27 06:58:21;;;;;;;4.70;2.67;;;;;;;;;;5105360;28;20205;-69
2021/08/27 07:00:50;;;;;;;11.00;3.07;;;;;;;;;;5097113;28;20205;-68
2021/08/27 07:03:19;;;;;;;5.90;2.40;;;;;;;;;;5111987;28;20206;-68
2021/08/27 07:05:47;;;;;;;7.37;2.47;;;;;;;;;;5100255;28;20632;-69
2021/08/27 07:08:15;;;;;;;4.23;2.03;;;;;;;;;;5110896;28;20331;-67
2021/08/27 07:10:43;;;;;;;3.77;2.50;;;;;;;;;;5102997;27;20672;-67
2021/08/27 07:13:12;;;;;;;8.83;2.23;;;;;;;;;;5100339;28;20566;-69
2021/08/27 07:15:40;;;;;;;9.17;2.50;;;;;;;;;;5100514;28;20233;-67
2021/08/27 07:18:10;;;;;;;4.03;2.50;;;;;;;;;;5100384;28;20205;-67
2021/08/27 07:20:38;;;;;;;4.87;2.40;;;;;;;;;;5100295;28;20197;-68
2021/08/27 07:23:07;;;;;;;4.03;2.37;;;;;;;;;;5100891;28;20251;-63
2021/08/27 07:25:35;;;;;;;4.00;2.33;;;;;;;;;;5106967;28;20772;-63
2021/08/27 07:28:03;;;;;;;7.43;3.03;;;;;;;;;;5113520;28;20730;-63
2021/08/27 07:30:30;;;;;;;6.30;3.73;;;;;;;;;;5109816;28;20197;-63
2021/08/27 07:32:58;;;;;;;5.57;2.33;;;;;;;;;;5107802;27;20207;-63
2021/08/27 07:35:28;;;;;;;6.77;2.37;;;;;;;;;;5117942;28;20227;-65
2021/08/27 07:37:56;;;;;;;5.17;2.50;;;;;;;;;;5106112;28;20204;-65
2021/08/27 07:40:24;;;;;;;6.37;2.73;;;;;;;;;;5099345;28;20208;-65
2021/08/27 07:42:52;;;;;;;5.43;2.60;;;;;;;;;;5099354;28;20204;-64
2021/08/27 07:45:20;;;;;;;4.27;2.40;;;;;;;;;;5104351;28;20225;-65
2021/08/27 07:47:48;;;;;;;6.50;2.40;;;;;;;;;;5102157;27;20240;-65
2021/08/27 07:50:16;;;;;;;6.57;2.57;;;;;;;;;;5111103;28;20219;-63
2021/08/27 07:52:48;;;;;;;11.60;2.87;;;;;;;;;;5106818;28;20197;-63
2021/08/27 07:55:16;;;;;;;5.70;2.80;;;;;;;;;;5105791;28;20233;-65
2021/08/27 07:57:44;;;;;;;8.63;2.57;;;;;;;;;;5104756;28;20189;-63
2021/08/27 08:00:13;;;;;;;5.23;2.30;;;;;;;;;;5108807;28;20668;-65
2021/08/27 08:02:41;;;;;;;3.60;2.23;;;;;;;;;;5105834;28;20284;-65
2021/08/27 08:05:10;;;;;;;9.40;2.53;;;;;;;;;;5106065;28;20700;-63
2021/08/27 08:07:38;;;;;;;2.77;2.00;;;;;;;;;;5107501;28;20199;-65
2021/08/27 08:10:08;;;;;;;10.37;2.90;;;;;;;;;;5106026;28;20198;-66
2021/08/27 08:12:36;;;;;;;6.07;2.70;;;;;;;;;;5114209;28;20201;-65
2021/08/27 08:15:04;;;;;;;5.80;2.50;;;;;;;;;;5113415;28;20229;-65
2021/08/27 08:17:32;;;;;;;5.57;2.47;;;;;;;;;;5115125;28;20204;-65
2021/08/27 08:20:00;;;;;;;6.70;2.50;;;;;;;;;;5102595;28;20686;-65
2021/08/27 08:22:28;;;;;;;7.60;2.60;;;;;;;;;;5115939;28;20641;-63
2021/08/27 08:24:56;;;;;;;3.93;2.80;;;;;;;;;;5116189;28;20589;-65
2021/08/27 08:27:26;;;;;;;4.17;2.50;;;;;;;;;;5114665;28;20208;-65
2021/08/27 08:29:54;;;;;;;5.83;2.37;;;;;;;;;;5111073;28;20228;-65
2021/08/27 08:32:22;;;;;;;7.07;2.80;;;;;;;;;;5103229;28;20197;-64
2021/08/27 08:34:50;;;;;;;4.33;2.33;;;;;;;;;;5112574;28;20227;-63
2021/08/27 08:37:18;;;;;;;11.30;2.80;;;;;;;;;;5113011;28;20217;-63
2021/08/27 08:39:47;;;;;;;3.43;2.00;;;;;;;;;;5105311;28;20292;-63
2021/08/27 08:42:15;;;;;;;4.97;2.90;;;;;;;;;;5105967;28;20200;-63
2021/08/27 08:44:44;;;;;;;6.33;2.60;;;;;;;;;;5105542;27;20232;-63
2021/08/27 08:47:12;;;;;;;3.07;2.30;;;;;;;;;;5107221;28;20201;-64
2021/08/27 08:49:41;;;;;;;6.60;1.97;;;;;;;;;;5112783;28;20221;-64
2021/08/27 08:52:09;;;;;;;5.53;2.43;;;;;;;;;;5108370;28;20212;-63
2021/08/27 08:54:37;;;;;;;4.07;2.50;;;;;;;;;;5107660;28;20230;-63
2021/08/27 08:57:05;;;;;;;4.20;2.20;;;;;;;;;;5106839;28;20208;-63
2021/08/27 08:59:34;;;;;;;6.37;2.37;;;;;;;;;;5101893;28;20565;-63
2021/08/27 09:02:07;;;;;;;7.70;2.60;;;;;;;;;;5104168;28;20207;-63
2021/08/27 09:04:36;;;;;;;4.87;2.30;;;;;;;;;;5097753;28;20231;-63
2021/08/27 09:07:04;;;;;;;7.87;2.60;;;;;;;;;;5097600;28;20677;-63
2021/08/27 09:09:33;;;;;;;4.57;2.20;;;;;;;;;;5097959;28;20232;-65
2021/08/27 09:12:01;;;;;;;3.87;1.80;;;;;;;;;;5097639;28;20210;-65
2021/08/27 09:14:30;;;;;;;4.87;2.10;;;;;;;;;;5101559;28;20294;-65
2021/08/27 09:17:04;;;;;;;5.07;2.30;;;;;;;;;;5112380;28;20659;-64
2021/08/27 09:19:51;;;;;;;4.17;2.10;;;;;;;;;;5103756;28;20200;-65
2021/08/27 09:22:19;;;;;;;4.63;1.90;;;;;;;;;;5103835;28;20331;-65
2021/08/27 09:25:03;;;;;;;5.53;1.93;;;;;;;;;;5107470;28;20220;-63
2021/08/27 09:27:31;;;;;;;6.03;2.30;;;;;;;;;;5108417;28;20706;-65
2021/08/27 09:30:00;;;;;;;2.20;2.00;;;;;;;;;;5107837;28;20309;-63
2021/08/27 09:32:30;;;;;;;4.30;2.33;;;;;;;;;;5109097;28;20201;-63
2021/08/27 09:35:18;;;;;;;2.70;1.90;;;;;;;;;;5107426;28;20225;-62
2021/08/27 09:37:46;;;;;;;5.03;2.43;;;;;;;;;;5108539;28;20201;-63
2021/08/27 09:40:15;;;;;;;4.83;1.83;;;;;;;;;;5101950;28;20201;-63
2021/08/27 09:42:45;;;;;;;2.20;2.00;;;;;;;;;;5102646;28;20205;-63
2021/08/27 09:45:13;;;;;;;6.97;2.03;;;;;;;;;;5102549;28;20583;-63
2021/08/27 09:50:37;;;;;;;3.90;2.37;;;;;;;;;;5135398;27;20606;-66
2021/08/27 09:53:06;;;;;;;2.97;2.00;;;;;;;;;;5132596;27;20208;-64
2021/08/27 09:55:35;;;;;;;5.83;3.10;;;;;;;;;;5132765;28;20220;-65
2021/08/27 09:58:04;;;;;;;4.63;2.50;;;;;;;;;;5131058;28;20211;-62
2021/08/27 10:00:33;;;;;;;2.57;2.20;;;;;;;;;;5131784;27;20210;-63
2021/08/27 10:03:03;;;;;;;2.50;1.97;;;;;;;;;;5128703;28;20201;-63
2021/08/27 10:05:41;;;;;;;5.73;1.60;;;;;;;;;;5130475;27;20626;-63
2021/08/27 10:08:14;;;;;;;2.67;1.87;;;;;;;;;;5114516;28;20223;-62
2021/08/27 10:10:42;;;;;;;4.77;1.93;;;;;;;;;;5114260;28;20218;-63
2021/08/27 10:13:10;;;;;;;3.20;1.97;;;;;;;;;;5114590;28;20247;-62
2021/08/27 10:15:38;;;;;;;5.47;1.83;;;;;;;;;;5114150;28;20225;-63
2021/08/27 10:18:09;;;;;;;4.07;1.93;;;;;;;;;;5124307;28;20229;-63
2021/08/27 10:20:38;;;;;;;2.33;1.60;;;;;;;;;;5123131;27;20716;-63
2021/08/27 10:23:09;;;;;;;5.47;2.20;;;;;;;;;;5122454;27;20584;-63
2021/08/27 10:25:38;;;;;;;4.13;1.97;;;;;;;;;;5125536;27;20306;-63
2021/08/27 10:28:06;;;;;;;3.23;2.00;;;;;;;;;;5127482;28;20201;-63
2021/08/27 10:30:51;;;;;;;3.67;1.70;;;;;;;;;;5113982;28;20235;-64
2021/08/27 10:33:19;;;;;;;5.20;2.00;;;;;;;;;;5114010;28;20204;-63
2021/08/27 10:35:50;;;;;;;3.07;2.00;;;;;;;;;;5113733;28;20221;-63
2021/08/27 10:38:36;;;;;;;3.90;1.60;;;;;;;;;;5113552;28;20731;-62
2021/08/27 10:41:09;;;;;;;4.83;2.10;;;;;;;;;;5112164;27;20200;-65
2021/08/27 10:43:55;;;;;;;4.00;1.90;;;;;;;;;;5128284;28;20238;-63
2021/08/27 10:46:23;;;;;;;7.97;4.47;;;;;;;;;;5113579;28;20203;-64
2021/08/27 10:48:52;;;;;;;6.57;2.17;;;;;;;;;;5113288;28;20324;-64
2021/08/27 10:51:30;;;;;;;3.83;1.80;;;;;;;;;;5113368;28;20233;-63
2021/08/27 10:53:58;;;;;;;2.27;1.73;;;;;;;;;;5113759;28;20235;-64
2021/08/27 10:56:42;;;;;;;4.07;1.60;;;;;;;;;;5113510;28;20201;-64
2021/08/27 10:59:10;;;;;;;4.57;2.07;;;;;;;;;;5121549;28;20197;-64
2021/08/27 11:01:39;;;;;;;4.43;2.07;;;;;;;;;;5111671;27;20197;-64
2021/08/27 11:04:12;;;;;;;3.33;2.07;;;;;;;;;;5109543;28;20255;-64
2021/08/27 11:06:47;;;;;;;2.03;1.77;;;;;;;;;;5110085;28;20647;-64
2021/08/27 11:09:15;;;;;;;3.87;1.83;;;;;;;;;;5099460;28;20307;-64
2021/08/27 11:11:45;;;;;;;2.57;1.60;;;;;;;;;;5099311;28;20239;-64
2021/08/27 11:14:18;;;;;;;3.53;1.70;;;;;;;;;;5111217;28;20304;-64
2021/08/27 11:16:55;;;;;;;5.67;2.13;;;;;;;;;;5107890;27;20262;-64
2021/08/27 11:19:27;;;;;;;7.40;2.10;;;;;;;;;;5109686;28;20262;-64
2021/08/27 11:21:56;;;;;;;4.43;2.03;;;;;;;;;;5108369;28;20280;-65
2021/08/27 11:24:26;;;;;;;4.20;1.77;;;;;;;;;;5112710;28;20229;-64
2021/08/27 11:27:03;;;;;;;3.53;2.03;;;;;;;;;;5108426;28;20206;-64
2021/08/27 11:29:35;;;;;;;5.43;2.00;;;;;;;;;;5110878;28;20219;-64
2021/08/27 11:32:30;;;;;;;1.97;1.40;;;;;;;;;;5108981;28;20229;-64
2021/08/27 11:34:59;;;;;;;2.97;1.60;;;;;;;;;;5112161;28;20301;-64
2021/08/27 11:37:30;;;;;;;4.77;2.10;;;;;;;;;;5115844;28;20209;-64
2021/08/27 11:39:59;;;;;;;4.53;2.07;;;;;;;;;;5099245;28;20562;-65
2021/08/27 11:42:28;;;;;;;5.07;2.07;;;;;;;;;;5099400;28;20645;-66
2021/08/27 11:45:04;;;;;;;4.93;1.87;;;;;;;;;;5099717;28;20236;-66
2021/08/27 11:47:39;;;;;;;2.53;1.87;;;;;;;;;;5099371;28;20209;-66
2021/08/27 11:50:08;;;;;;;3.13;2.20;;;;;;;;;;5100680;28;20240;-65
2021/08/27 11:52:36;;;;;;;6.13;2.23;;;;;;;;;;5099577;28;20208;-65
2021/08/27 11:55:05;;;;;;;2.47;1.97;;;;;;;;;;5099313;28;20227;-65
2021/08/27 11:57:35;;;;;;;3.13;2.23;;;;;;;;;;5099928;28;20213;-66
2021/08/27 12:00:08;;;;;;;3.33;2.03;;;;;;;;;;5119700;28;20205;-65
2021/08/27 12:02:36;;;;;;;4.57;1.83;;;;;;;;;;5119630;28;20207;-65
2021/08/27 12:05:06;;;;;;;9.97;2.10;;;;;;;;;;5119801;28;20308;-65
2021/08/27 12:07:39;;;;;;;2.20;1.97;;;;;;;;;;5119858;28;20204;-64
2021/08/27 12:10:09;;;;;;;4.73;1.90;;;;;;;;;;5119514;28;20717;-67
2021/08/27 12:12:39;;;;;;;2.77;1.57;;;;;;;;;;5118438;28;20731;-66
2021/08/27 12:15:08;;;;;;;2.03;1.63;;;;;;;;;;5119606;28;20229;-63
2021/08/27 12:17:36;;;;;;;5.87;2.00;;;;;;;;;;5119262;28;20215;-62
2021/08/27 12:20:06;;;;;;;2.53;1.83;;;;;;;;;;5119704;28;20208;-63
2021/08/27 12:22:43;;;;;;;3.37;1.70;;;;;;;;;;5119788;28;20215;-62
2021/08/27 12:25:18;;;;;;;2.70;1.80;;;;;;;;;;5119246;28;20307;-62
2021/08/27 12:28:05;;;;;;;299.23;201.80;;;;;;;;;;5099059;28;20690;-64
2021/08/27 12:30:33;;;;;;;1999.90;999.90;;;;;;;;;;5098753;28;20226;-63
2021/08/27 12:33:21;;;;;;;549.70;292.50;;;;;;;;;;5098166;28;20209;-63
2021/08/27 12:35:50;;;;;;;53.27;29.37;;;;;;;;;;5098813;28;20292;-64
2021/08/27 12:38:19;;;;;;;90.77;45.47;;;;;;;;;;5098475;28;20210;-65
2021/08/27 12:40:47;;;;;;;225.53;109.40;;;;;;;;;;5098515;28;20212;-64
2021/08/27 12:43:21;;;;;;;126.43;70.83;;;;;;;;;;5101259;28;20207;-64
2021/08/27 12:45:50;;;;;;;32.67;17.67;;;;;;;;;;5097754;28;20537;-64
2021/08/27 12:48:20;;;;;;;13.77;6.40;;;;;;;;;;5097684;28;20201;-64
2021/08/27 12:50:49;;;;;;;482.67;328.80;;;;;;;;;;5105829;28;20252;-63
2021/08/27 12:53:18;;;;;;;49.83;25.20;;;;;;;;;;5106858;28;20265;-62
2021/08/27 12:55:46;;;;;;;35.10;20.13;;;;;;;;;;5111839;28;20281;-63
2021/08/27 12:58:14;;;;;;;49.70;24.63;;;;;;;;;;5098726;28;20284;-62
2021/08/27 13:00:43;;;;;;;34.97;18.67;;;;;;;;;;5106019;28;20204;-64
2021/08/27 13:03:12;;;;;;;32.53;12.67;;;;;;;;;;5101965;28;20295;-64
2021/08/27 13:05:41;;;;;;;17.17;7.97;;;;;;;;;;5117947;28;20345;-62
2021/08/27 13:08:15;;;;;;;16.27;8.67;;;;;;;;;;5109368;28;20204;-62
2021/08/27 13:10:59;;;;;;;8.17;4.50;;;;;;;;;;5100432;28;20242;-62
2021/08/27 13:13:28;;;;;;;24.20;10.23;;;;;;;;;;5105917;28;20264;-63
2021/08/27 13:16:07;;;;;;;24.60;10.93;;;;;;;;;;5104111;28;20278;-63
2021/08/27 13:18:39;;;;;;;8.77;3.90;;;;;;;;;;5105645;28;20240;-63
2021/08/27 13:21:07;;;;;;;8.90;4.83;;;;;;;;;;5103772;28;20193;-62
2021/08/27 13:23:35;;;;;;;8.07;3.17;;;;;;;;;;5110318;28;20194;-63
2021/08/27 13:26:04;;;;;;;6.10;3.20;;;;;;;;;;5107184;28;20208;-63
2021/08/27 13:28:36;;;;;;;5.23;2.83;;;;;;;;;;5106185;28;20205;-63
2021/08/27 13:31:05;;;;;;;7.43;3.60;;;;;;;;;;5105480;28;20227;-63
2021/08/27 13:33:34;;;;;;;8.80;3.10;;;;;;;;;;5105161;28;20211;-64
2021/08/27 13:36:02;;;;;;;7.73;3.30;;;;;;;;;;5097458;28;20198;-64
2021/08/27 13:38:30;;;;;;;9.53;4.23;;;;;;;;;;5097105;28;20236;-63
2021/08/27 13:40:58;;;;;;;5.63;1.80;;;;;;;;;;5098283;28;20533;-63
2021/08/27 13:43:26;;;;;;;3.53;2.00;;;;;;;;;;5099223;28;20566;-63
2021/08/27 13:45:54;;;;;;;2.97;1.73;;;;;;;;;;5097582;28;20203;-63
2021/08/27 13:48:24;;;;;;;1.87;1.67;;;;;;;;;;5109602;28;20290;-64
2021/08/27 13:50:54;;;;;;;3.40;1.80;;;;;;;;;;5111199;28;20227;-63
2021/08/27 13:53:22;;;;;;;8.97;1.97;;;;;;;;;;5097624;28;20211;-63
2021/08/27 13:55:50;;;;;;;3.63;1.63;;;;;;;;;;5097268;28;20213;-63
2021/08/27 13:58:18;;;;;;;3.57;2.17;;;;;;;;;;5097388;28;20244;-64
2021/08/27 14:00:47;;;;;;;3.47;1.80;;;;;;;;;;5097071;28;20224;-62
2021/08/27 14:03:16;;;;;;;5.63;2.00;;;;;;;;;;5097685;28;20208;-63
2021/08/27 14:05:44;;;;;;;5.30;2.90;;;;;;;;;;5098459;28;20311;-64
2021/08/27 14:08:13;;;;;;;2.70;1.77;;;;;;;;;;5097127;28;20697;-64
2021/08/27 14:10:42;;;;;;;4.03;1.83;;;;;;;;;;5097489;28;20206;-64
2021/08/27 14:13:11;;;;;;;5.43;1.83;;;;;;;;;;5097528;28;20208;-63
2021/08/27 14:15:39;;;;;;;9.77;2.77;;;;;;;;;;5097209;28;20233;-64
2021/08/27 14:18:06;;;;;;;5.23;1.97;;;;;;;;;;5099874;28;20281;-63
2021/08/27 14:20:34;;;;;;;5.37;1.93;;;;;;;;;;5097242;28;20307;-63
2021/08/27 14:23:04;;;;;;;4.20;1.50;;;;;;;;;;5097536;28;20280;-61
2021/08/27 14:25:34;;;;;;;3.23;2.07;;;;;;;;;;5099378;28;20234;-63
2021/08/27 14:28:03;;;;;;;4.70;1.83;;;;;;;;;;5097047;28;20667;-63
2021/08/27 14:30:31;;;;;;;3.00;1.77;;;;;;;;;;5097324;28;20295;-63
2021/08/27 14:33:01;;;;;;;3.10;2.00;;;;;;;;;;5096627;28;20829;-63
2021/08/27 14:35:29;;;;;;;2.87;1.83;;;;;;;;;;5097918;28;20225;-64
2021/08/27 14:37:57;;;;;;;6.10;1.60;;;;;;;;;;5111394;28;20208;-63
2021/08/27 14:40:26;;;;;;;3.13;2.13;;;;;;;;;;5100958;28;20648;-60
2021/08/27 14:42:55;;;;;;;4.77;2.10;;;;;;;;;;5106424;28;20213;-60
2021/08/27 14:45:23;;;;;;;3.13;2.27;;;;;;;;;;5108855;28;20596;-62
2021/08/27 14:47:51;;;;;;;3.00;2.17;;;;;;;;;;5107508;28;20208;-60
2021/08/27 14:50:19;;;;;;;2.40;1.70;;;;;;;;;;5111224;28;20235;-60
2021/08/27 14:52:48;;;;;;;3.17;1.90;;;;;;;;;;5106439;28;20256;-61
2021/08/27 14:55:16;;;;;;;2.03;1.60;;;;;;;;;;5109039;28;20713;-60
2021/08/27 14:57:44;;;;;;;4.30;2.30;;;;;;;;;;5107174;28;20249;-60